createdAt,value
2023-04-10T00:02:45.490Z,2.28
2023-04-10T00:05:48.991Z,2.51
2023-04-10T00:08:52.754Z,2.38
2023-04-10T00:11:57.071Z,2.39
2023-04-10T00:15:00.180Z,2.30
2023-04-10T00:18:03.403Z,1.90
2023-04-10T00:21:06.840Z,2.09
2023-04-10T00:24:10.256Z,2.09
2023-04-10T00:27:13.977Z,2.17
2023-04-10T00:30:18.030Z,2.32
2023-04-10T00:33:22.139Z,2.00
2023-04-10T00:36:25.671Z,1.96
2023-04-10T00:39:29.363Z,1.90
2023-04-10T00:42:33.846Z,1.92
2023-04-10T00:45:40.688Z,1.86
2023-04-10T00:48:44.431Z,1.80
2023-04-10T00:51:48.565Z,1.76
2023-04-10T00:54:53.255Z,1.70
2023-04-10T00:57:57.607Z,1.72
2023-04-10T01:01:00.966Z,1.91
2023-04-10T01:04:04.855Z,1.84
2023-04-10T01:07:29.546Z,1.90
2023-04-10T01:10:39.696Z,2.02
2023-04-10T01:13:56.128Z,1.92
2023-04-10T01:17:08.570Z,1.69
2023-04-10T01:20:17.117Z,1.19
2023-04-10T01:23:59.622Z,1.01
2023-04-10T01:27:41.708Z,0.99
2023-04-10T01:30:47.357Z,0.93
2023-04-10T01:33:56.787Z,0.78
2023-04-10T01:37:03.819Z,0.79
2023-04-10T01:40:11.843Z,0.84
2023-04-10T01:43:16.997Z,0.66
2023-04-10T01:46:27.827Z,0.74
2023-04-10T01:49:33.608Z,0.83
2023-04-10T01:52:40.131Z,0.75
2023-04-10T01:56:04.187Z,0.77
2023-04-10T01:59:14.952Z,0.88
2023-04-10T02:02:19.461Z,0.84
2023-04-10T02:05:24.463Z,0.85
2023-04-10T02:08:35.648Z,0.83
2023-04-10T02:11:50.123Z,0.59
2023-04-10T02:14:56.735Z,0.70
2023-04-10T02:18:02.212Z,0.78
2023-04-10T02:21:07.945Z,0.49
2023-04-10T02:24:11.705Z,0.67
2023-04-10T02:27:16.950Z,0.83
2023-04-10T02:30:21.218Z,0.97
2023-04-10T02:33:24.257Z,0.88
2023-04-10T02:36:28.378Z,1.08
2023-04-10T02:39:32.320Z,1.14
2023-04-10T02:42:36.768Z,1.27
2023-04-10T02:45:40.547Z,1.55
2023-04-10T02:48:46.540Z,1.31
2023-04-10T02:51:50.300Z,1.28
2023-04-10T02:54:53.402Z,1.07
2023-04-10T02:57:57.075Z,1.03
2023-04-10T03:01:01.691Z,1.37
2023-04-10T03:04:25.625Z,1.46
2023-04-10T03:07:29.799Z,1.55
2023-04-10T03:10:33.269Z,1.76
2023-04-10T03:13:36.342Z,1.81
2023-04-10T03:16:39.591Z,1.79
2023-04-10T03:19:43.339Z,1.83
2023-04-10T03:22:46.975Z,1.95
2023-04-10T03:25:54.275Z,1.90
2023-04-10T03:29:01.319Z,1.78
2023-04-10T03:32:04.681Z,1.84
2023-04-10T03:35:09.388Z,1.93
2023-04-10T03:38:13.279Z,1.76
2023-04-10T03:41:16.265Z,1.57
2023-04-10T03:44:20.470Z,1.57
2023-04-10T03:47:23.491Z,1.53
2023-04-10T03:50:29.603Z,1.40
2023-04-10T03:53:36.736Z,1.43
2023-04-10T03:56:45.934Z,1.57
2023-04-10T03:59:49.510Z,1.80
2023-04-10T04:02:55.127Z,1.78
2023-04-10T04:06:24.247Z,1.91
2023-04-10T04:10:00.248Z,2.15
2023-04-10T04:13:16.434Z,2.14
2023-04-10T04:16:28.522Z,2.30
2023-04-10T04:19:45.311Z,2.43
2023-04-10T04:23:08.442Z,2.81
2023-04-10T04:26:29.893Z,2.65
2023-04-10T04:30:08.865Z,2.57
2023-04-10T04:33:23.645Z,2.40
2023-04-10T04:36:53.631Z,2.26
2023-04-10T04:40:22.909Z,2.32
2023-04-10T04:43:39.485Z,2.32
2023-04-10T04:46:54.929Z,2.38
2023-04-10T04:50:18.160Z,2.48
2023-04-10T04:53:36.125Z,2.40
2023-04-10T04:56:49.695Z,2.41
2023-04-10T05:00:08.208Z,2.35
2023-04-10T05:03:35.516Z,2.02
2023-04-10T05:06:58.909Z,2.00
2023-04-10T05:10:32.623Z,1.90
2023-04-10T05:14:08.270Z,1.72
2023-04-10T05:17:32.316Z,1.64
2023-04-10T05:20:51.390Z,1.63
2023-04-10T05:24:22.120Z,1.51
2023-04-10T05:27:45.956Z,1.88
2023-04-10T05:31:22.423Z,1.89
2023-04-10T05:34:31.662Z,1.64
2023-04-10T05:37:59.907Z,1.98
2023-04-10T05:41:18.469Z,2.06
2023-04-10T05:44:40.963Z,2.25
2023-04-10T05:48:06.728Z,2.47
2023-04-10T05:51:32.915Z,2.70
2023-04-10T05:55:14.424Z,2.65
2023-04-10T05:58:17.502Z,2.22
2023-04-10T06:01:41.705Z,1.91
2023-04-10T06:04:45.664Z,1.71
2023-04-10T06:07:50.101Z,1.68
2023-04-10T06:10:53.290Z,1.73
2023-04-10T06:13:56.504Z,1.93
2023-04-10T06:17:07.522Z,2.21
2023-04-10T06:20:11.042Z,2.09
2023-04-10T06:23:15.363Z,1.82
2023-04-10T06:26:19.286Z,1.46
2023-04-10T06:29:22.405Z,1.31
2023-04-10T06:32:25.515Z,0.74
2023-04-10T06:35:29.394Z,0.45
2023-04-10T06:38:34.638Z,0.48
2023-04-10T06:41:38.293Z,0.61
2023-04-10T06:44:50.569Z,0.75
2023-04-10T06:47:54.607Z,0.85
2023-04-10T06:50:58.182Z,0.79
2023-04-10T06:54:01.909Z,0.80
2023-04-10T06:57:05.296Z,0.92
2023-04-10T07:00:09.977Z,0.94
2023-04-10T07:03:13.840Z,0.82
2023-04-10T07:06:17.807Z,0.70
2023-04-10T07:09:21.577Z,0.81
2023-04-10T07:12:24.953Z,0.95
2023-04-10T07:15:29.252Z,0.76
2023-04-10T07:18:32.182Z,0.44
2023-04-10T07:21:36.342Z,0.44
2023-04-10T07:24:39.368Z,0.52
2023-04-10T07:27:42.922Z,0.62
2023-04-10T07:30:46.729Z,0.59
2023-04-10T07:33:50.642Z,0.52
2023-04-10T07:36:53.754Z,0.25
2023-04-10T07:39:57.362Z,-0.20
2023-04-10T07:43:00.301Z,-0.10
2023-04-10T07:46:04.914Z,-0.10
2023-04-10T07:49:08.912Z,-0.02
2023-04-10T07:52:12.547Z,-0.18
2023-04-10T07:55:16.097Z,-0.21
2023-04-10T07:58:20.419Z,-0.26
2023-04-10T08:01:23.639Z,-0.06
2023-04-10T08:04:27.561Z,0.03
2023-04-10T08:07:31.888Z,0.10
2023-04-10T08:10:38.209Z,0.26
2023-04-10T08:13:41.880Z,-0.06
2023-04-10T08:16:45.033Z,-0.11
2023-04-10T08:19:48.513Z,-0.54
2023-04-10T08:22:52.839Z,-0.82
2023-04-10T08:25:55.791Z,-0.84
2023-04-10T08:29:01.261Z,-1.07
2023-04-10T08:32:04.380Z,-1.00
2023-04-10T08:35:08.649Z,-0.90
2023-04-10T08:38:14.189Z,-0.63
2023-04-10T08:41:20.320Z,-0.47
2023-04-10T08:44:23.358Z,-0.51
2023-04-10T08:47:29.945Z,-0.50
2023-04-10T08:50:36.705Z,-0.48
2023-04-10T08:53:43.797Z,-0.43
2023-04-10T08:56:54.397Z,-0.50
2023-04-10T09:00:04.198Z,-0.63
2023-04-10T09:03:16.713Z,-0.93
2023-04-10T09:06:19.981Z,-1.01
2023-04-10T09:09:22.976Z,-0.94
2023-04-10T09:12:26.163Z,-0.84
2023-04-10T09:15:29.896Z,-0.63
2023-04-10T09:18:49.972Z,-0.70
2023-04-10T09:21:53.109Z,-0.73
2023-04-10T09:24:56.280Z,-0.82
2023-04-10T09:28:10.246Z,-0.72
2023-04-10T09:31:33.869Z,-0.52
2023-04-10T09:34:54.325Z,-0.55
2023-04-10T09:37:57.378Z,-0.48
2023-04-10T09:41:10.250Z,-0.44
2023-04-10T09:44:14.402Z,-0.64
2023-04-10T09:47:22.013Z,-0.69
2023-04-10T09:50:39.248Z,-0.68
2023-04-10T09:53:53.547Z,-0.97
2023-04-10T09:56:58.702Z,-0.89
2023-04-10T10:00:13.040Z,-1.10
2023-04-10T10:03:19.045Z,-1.09
2023-04-10T10:06:22.983Z,-1.30
2023-04-10T10:09:29.188Z,-1.41
2023-04-10T10:12:37.673Z,-1.45
2023-04-10T10:15:53.117Z,-1.36
2023-04-10T10:19:27.790Z,-1.53
2023-04-10T10:22:33.039Z,-1.64
2023-04-10T10:25:36.909Z,-1.53
2023-04-10T10:28:42.100Z,-1.46
2023-04-10T10:31:48.448Z,-1.46
2023-04-10T10:34:54.443Z,-1.46
2023-04-10T10:38:01.184Z,-1.45
2023-04-10T10:41:22.340Z,-1.56
2023-04-10T10:44:36.036Z,-1.78
2023-04-10T10:47:58.466Z,-1.81
2023-04-10T10:51:04.011Z,-1.79
2023-04-10T10:54:42.428Z,-1.77
2023-04-10T10:57:56.912Z,-1.97
2023-04-10T11:01:00.223Z,-1.91
2023-04-10T11:04:45.178Z,-1.96
2023-04-10T11:08:01.144Z,-1.95
2023-04-10T11:11:09.364Z,-2.11
2023-04-10T11:14:18.318Z,-2.06
2023-04-10T11:17:51.977Z,-1.97
2023-04-10T11:21:16.168Z,-2.07
2023-04-10T11:24:19.794Z,-2.05
2023-04-10T11:27:59.315Z,-1.96
2023-04-10T11:31:20.195Z,-1.96
2023-04-10T11:34:23.976Z,-2.03
2023-04-10T11:37:27.681Z,-2.07
2023-04-10T11:40:32.400Z,-2.17
2023-04-10T11:43:36.452Z,-2.24
2023-04-10T11:46:42.717Z,-2.32
2023-04-10T11:49:56.452Z,-2.37
2023-04-10T11:53:00.582Z,-2.50
2023-04-10T11:56:05.105Z,-2.49
2023-04-10T11:59:15.340Z,-2.46
2023-04-10T12:02:18.858Z,-2.48
2023-04-10T12:05:23.037Z,-2.33
2023-04-10T12:08:33.483Z,-2.43
2023-04-10T12:11:37.598Z,-2.54
2023-04-10T12:14:43.410Z,-2.41
2023-04-10T12:17:47.771Z,-2.52
2023-04-10T12:20:55.905Z,-2.53
2023-04-10T12:23:59.706Z,-2.50
2023-04-10T12:27:03.363Z,-2.53
2023-04-10T12:30:09.660Z,-2.63
2023-04-10T12:33:13.703Z,-2.66
2023-04-10T12:36:24.812Z,-2.74
2023-04-10T12:39:28.522Z,-2.64
2023-04-10T12:42:41.988Z,-2.60
2023-04-10T12:45:46.361Z,-2.61
2023-04-10T12:48:50.461Z,-2.74
2023-04-10T12:51:54.344Z,-2.80
2023-04-10T12:55:12.816Z,-2.89
2023-04-10T12:58:23.429Z,-2.90
2023-04-10T13:01:27.654Z,-2.87
2023-04-10T13:04:32.875Z,-2.82
2023-04-10T13:07:40.047Z,-2.89
2023-04-10T13:10:44.185Z,-2.80
2023-04-10T13:13:49.135Z,-2.89
2023-04-10T13:16:52.100Z,-2.87
2023-04-10T13:19:55.907Z,-2.86
2023-04-10T13:22:59.966Z,-2.93
2023-04-10T13:26:03.496Z,-3.08
2023-04-10T13:29:07.432Z,-3.00
2023-04-10T13:32:11.512Z,-3.10
2023-04-10T13:35:15.112Z,-3.16
2023-04-10T13:38:19.921Z,-3.05
2023-04-10T13:41:25.357Z,-3.02
2023-04-10T13:44:29.050Z,-3.00
2023-04-10T13:47:33.065Z,-2.92
2023-04-10T13:50:36.214Z,-3.05
2023-04-10T13:53:39.984Z,-2.98
2023-04-10T13:56:45.028Z,-2.98
2023-04-10T13:59:49.123Z,-3.03
2023-04-10T14:02:52.288Z,-3.19
2023-04-10T14:05:55.753Z,-3.24
2023-04-10T14:08:59.020Z,-3.08
2023-04-10T14:12:02.658Z,-3.13
2023-04-10T14:15:06.483Z,-3.41
2023-04-10T14:18:09.957Z,-3.51
2023-04-10T14:21:13.012Z,-3.40
2023-04-10T14:24:16.073Z,-3.31
2023-04-10T14:27:19.188Z,-3.25
2023-04-10T14:30:22.613Z,-3.23
2023-04-10T14:33:26.464Z,-3.41
2023-04-10T14:36:30.240Z,-3.46
2023-04-10T14:39:36.001Z,-3.36
2023-04-10T14:42:39.047Z,-3.30
2023-04-10T14:45:42.434Z,-3.26
2023-04-10T14:48:46.468Z,-3.19
2023-04-10T14:51:50.859Z,-3.13
2023-04-10T14:54:54.632Z,-3.17
2023-04-10T14:57:58.827Z,-3.38
2023-04-10T15:01:03.148Z,-3.58
2023-04-10T15:04:07.049Z,-3.55
2023-04-10T15:07:10.388Z,-3.56
2023-04-10T15:10:13.363Z,-3.43
2023-04-10T15:13:16.662Z,-3.47
2023-04-10T15:16:20.669Z,-3.48
2023-04-10T15:19:24.579Z,-3.51
2023-04-10T15:22:27.880Z,-3.40
2023-04-10T15:25:33.968Z,-3.37
2023-04-10T15:28:37.558Z,-3.50
2023-04-10T15:31:41.068Z,-3.48
2023-04-10T15:34:45.816Z,-3.36
2023-04-10T15:37:49.563Z,-3.33
2023-04-10T15:40:52.931Z,-3.32
2023-04-10T15:43:56.615Z,-3.34
2023-04-10T15:47:00.599Z,-3.35
2023-04-10T15:50:05.708Z,-3.48
2023-04-10T15:53:09.932Z,-3.46
2023-04-10T15:56:16.873Z,-3.36
2023-04-10T15:59:20.278Z,-3.43
2023-04-10T16:02:24.732Z,-3.39
2023-04-10T16:05:28.628Z,-3.48
2023-04-10T16:08:32.561Z,-3.56
2023-04-10T16:11:36.354Z,-3.60
2023-04-10T16:14:40.135Z,-3.63
2023-04-10T16:17:43.840Z,-3.72
2023-04-10T16:20:47.973Z,-3.72
2023-04-10T16:23:51.668Z,-3.77
2023-04-10T16:26:55.733Z,-3.70
2023-04-10T16:29:59.522Z,-3.77
2023-04-10T16:33:04.943Z,-3.81
2023-04-10T16:36:08.628Z,-3.87
2023-04-10T16:39:12.096Z,-3.76
2023-04-10T16:42:15.812Z,-3.66
2023-04-10T16:45:19.535Z,-3.60
2023-04-10T16:48:23.550Z,-3.70
2023-04-10T16:51:26.692Z,-3.66
2023-04-10T16:54:30.121Z,-3.60
2023-04-10T16:57:34.121Z,-3.75
2023-04-10T17:00:38.222Z,-3.71
2023-04-10T17:03:41.685Z,-3.67
2023-04-10T17:06:45.153Z,-3.80
2023-04-10T17:09:49.237Z,-3.80
2023-04-10T17:12:53.021Z,-3.80
2023-04-10T17:15:57.010Z,-3.84
2023-04-10T17:19:00.027Z,-3.84
2023-04-10T17:22:03.308Z,-3.85
2023-04-10T17:25:07.780Z,-3.94
2023-04-10T17:28:11.806Z,-3.90
2023-04-10T17:31:16.041Z,-3.86
2023-04-10T17:34:19.833Z,-4.01
2023-04-10T17:37:23.636Z,-3.99
2023-04-10T17:40:26.862Z,-3.93
2023-04-10T17:43:30.875Z,-3.81
2023-04-10T17:46:34.552Z,-3.78
2023-04-10T17:49:40.316Z,-3.73
2023-04-10T17:52:45.077Z,-3.91
2023-04-10T17:55:49.220Z,-3.93
2023-04-10T17:58:54.820Z,-3.94
2023-04-10T18:01:58.476Z,-3.93
2023-04-10T18:05:04.027Z,-3.90
2023-04-10T18:08:09.492Z,-3.89
2023-04-10T18:11:13.759Z,-3.89
2023-04-10T18:14:18.206Z,-3.99
2023-04-10T18:17:22.245Z,-4.00
2023-04-10T18:20:26.462Z,-4.03
2023-04-10T18:23:31.470Z,-3.97
2023-04-10T18:26:35.794Z,-4.04
2023-04-10T18:29:39.676Z,-3.98
2023-04-10T18:32:43.700Z,-3.91
2023-04-10T18:35:47.257Z,-3.81
2023-04-10T18:38:51.437Z,-3.91
2023-04-10T18:41:54.629Z,-3.99
2023-04-10T18:44:57.576Z,-3.94
2023-04-10T18:48:01.937Z,-3.89
2023-04-10T18:51:05.929Z,-3.94
2023-04-10T18:54:09.840Z,-3.88
2023-04-10T18:57:14.496Z,-3.99
2023-04-10T19:00:18.304Z,-3.96
2023-04-10T19:03:22.642Z,-3.95
2023-04-10T19:06:28.791Z,-3.93
2023-04-10T19:09:32.479Z,-3.93
2023-04-10T19:12:40.349Z,-4.03
2023-04-10T19:15:46.827Z,-4.18
2023-04-10T19:18:50.735Z,-4.17
2023-04-10T19:21:54.386Z,-4.16
2023-04-10T19:24:58.779Z,-4.12
2023-04-10T19:28:02.545Z,-4.32
2023-04-10T19:31:06.783Z,-4.29
2023-04-10T19:34:12.996Z,-4.18
2023-04-10T19:37:16.293Z,-4.25
2023-04-10T19:40:20.196Z,-4.37
2023-04-10T19:43:23.115Z,-4.28
2023-04-10T19:46:26.323Z,-4.35
2023-04-10T19:49:33.359Z,-4.19
2023-04-10T19:52:36.410Z,-4.15
2023-04-10T19:55:41.368Z,-4.19
2023-04-10T19:58:55.911Z,-4.16
2023-04-10T20:01:59.286Z,-4.19
2023-04-10T20:05:03.449Z,-4.19
2023-04-10T20:08:07.156Z,-4.17
2023-04-10T20:11:10.211Z,-4.11
2023-04-10T20:14:14.311Z,-4.16
2023-04-10T20:17:17.661Z,-4.13
2023-04-10T20:20:21.035Z,-4.14
2023-04-10T20:23:24.365Z,-4.11
2023-04-10T20:26:27.764Z,-4.20
2023-04-10T20:29:31.551Z,-4.20
2023-04-10T20:32:35.897Z,-4.16
2023-04-10T20:35:39.217Z,-4.20
2023-04-10T20:38:43.457Z,-4.14
2023-04-10T20:41:46.992Z,-4.05
2023-04-10T20:44:50.908Z,-4.07
2023-04-10T20:47:54.706Z,-4.12
2023-04-10T20:50:58.444Z,-4.10
2023-04-10T20:54:02.279Z,-4.05
2023-04-10T20:57:06.935Z,-4.11
2023-04-10T21:00:11.281Z,-4.19
2023-04-10T21:03:15.590Z,-4.19
2023-04-10T21:06:19.394Z,-4.29
2023-04-10T21:09:23.063Z,-4.26
2023-04-10T21:12:26.808Z,-4.28
2023-04-10T21:15:30.803Z,-4.36
2023-04-10T21:18:34.504Z,-4.33
2023-04-10T21:21:37.707Z,-4.29
2023-04-10T21:24:40.898Z,-4.28
2023-04-10T21:27:43.949Z,-4.28
2023-04-10T21:30:47.545Z,-4.29
2023-04-10T21:33:50.672Z,-4.34
2023-04-10T21:36:55.301Z,-4.29
2023-04-10T21:39:58.418Z,-4.32
2023-04-10T21:43:03.043Z,-4.27
2023-04-10T21:46:07.275Z,-4.23
2023-04-10T21:49:11.323Z,-4.25
2023-04-10T21:52:14.368Z,-4.27
2023-04-10T21:55:18.980Z,-4.27
2023-04-10T21:58:22.001Z,-4.26
2023-04-10T22:01:25.648Z,-4.19
2023-04-10T22:04:28.717Z,-4.17
2023-04-10T22:07:32.072Z,-4.10
2023-04-10T22:10:36.318Z,-4.15
2023-04-10T22:13:40.037Z,-4.28
2023-04-10T22:16:43.233Z,-4.32
2023-04-10T22:19:47.682Z,-4.29
2023-04-10T22:22:51.327Z,-4.35
2023-04-10T22:25:55.034Z,-4.43
2023-04-10T22:28:59.673Z,-4.38
2023-04-10T22:32:03.091Z,-4.29
2023-04-10T22:35:07.581Z,-4.34
2023-04-10T22:38:10.941Z,-4.32
2023-04-10T22:41:14.775Z,-4.22
2023-04-10T22:44:18.426Z,-4.28
2023-04-10T22:47:22.233Z,-4.36
2023-04-10T22:50:25.594Z,-4.24
2023-04-10T22:53:29.382Z,-3.99
2023-04-10T22:56:32.483Z,-3.88
2023-04-10T22:59:39.258Z,-3.84
2023-04-10T23:02:42.584Z,-3.79
2023-04-10T23:05:47.591Z,-3.87
2023-04-10T23:08:54.712Z,-4.10
2023-04-10T23:11:58.572Z,-3.99
2023-04-10T23:15:02.057Z,-3.97
2023-04-10T23:18:06.096Z,-4.05
2023-04-10T23:21:10.328Z,-3.93
2023-04-10T23:24:13.499Z,-3.93
2023-04-10T23:27:17.551Z,-3.63
2023-04-10T23:30:21.416Z,-3.51
2023-04-10T23:33:25.597Z,-3.52
2023-04-10T23:36:28.588Z,-3.27
2023-04-10T23:39:32.656Z,-3.09
2023-04-10T23:42:35.855Z,-3.17
2023-04-10T23:45:39.127Z,-3.21
2023-04-10T23:48:43.219Z,-2.90
2023-04-10T23:51:46.768Z,-2.61
2023-04-10T23:54:50.250Z,-2.71
2023-04-10T23:57:53.304Z,-2.72
